Time;durP1;ratioP1;P1;durP2;ratioP2;P2;SDS_P1;SDS_P2;PMS_P1;PMS_P2;Temp;Humidity;BMP_temperature;BMP_pressure;BME280_temperature;BME280_humidity;BME280_pressure;Samples;Min_cycle;Max_cycle;Signal;HPM_P1;HPM_P2
2022/05/28 00:02:19;;;;;;;7.60;1.83;;;;;;;;;;4993032;28;20066;-74
2022/05/28 00:04:46;;;;;;;5.32;1.65;;;;;;;;;;4992991;28;20423;-73
2022/05/28 00:07:12;;;;;;;5.88;1.60;;;;;;;;;;4994064;28;20034;-74
2022/05/28 00:09:38;;;;;;;4.63;1.60;;;;;;;;;;4993554;28;20065;-74
2022/05/28 00:12:05;;;;;;;6.90;1.63;;;;;;;;;;4993410;28;20028;-74
2022/05/28 00:14:31;;;;;;;4.40;1.83;;;;;;;;;;4993095;28;20030;-74
2022/05/28 00:16:57;;;;;;;5.85;1.63;;;;;;;;;;4993083;28;20052;-75
2022/05/28 00:19:23;;;;;;;4.50;1.63;;;;;;;;;;4992990;28;20066;-75
2022/05/28 00:21:49;;;;;;;5.72;1.58;;;;;;;;;;4993879;28;20484;-75
2022/05/28 00:24:16;;;;;;;5.50;1.73;;;;;;;;;;4992932;28;20034;-75
2022/05/28 00:26:43;;;;;;;5.68;1.40;;;;;;;;;;4992689;28;20034;-75
2022/05/28 00:29:10;;;;;;;4.72;1.65;;;;;;;;;;4993148;28;20061;-75
2022/05/28 00:31:36;;;;;;;4.22;1.55;;;;;;;;;;4995569;28;20403;-76
2022/05/28 00:34:02;;;;;;;4.95;1.67;;;;;;;;;;4994028;28;20488;-76
2022/05/28 00:36:28;;;;;;;6.68;1.92;;;;;;;;;;4994444;28;20022;-75
2022/05/28 00:38:54;;;;;;;4.28;1.60;;;;;;;;;;4994160;28;20381;-76
2022/05/28 00:41:20;;;;;;;3.88;1.95;;;;;;;;;;4993778;28;20483;-75
2022/05/28 00:43:47;;;;;;;6.03;1.80;;;;;;;;;;4995149;28;20049;-75
2022/05/28 00:46:15;;;;;;;4.85;1.88;;;;;;;;;;4994059;28;20033;-76
2022/05/28 00:48:46;;;;;;;5.97;1.60;;;;;;;;;;4993673;28;20057;-75
2022/05/28 00:51:18;;;;;;;6.60;1.90;;;;;;;;;;4994024;28;20026;-75
2022/05/28 00:53:44;;;;;;;4.45;1.90;;;;;;;;;;4988560;28;20024;-75
2022/05/28 00:56:11;;;;;;;6.55;1.83;;;;;;;;;;4993980;28;20081;-75
2022/05/28 00:58:37;;;;;;;5.38;1.67;;;;;;;;;;4994587;28;20093;-75
2022/05/28 01:01:05;;;;;;;8.55;1.90;;;;;;;;;;4993298;28;20511;-75
2022/05/28 01:03:50;;;;;;;5.43;1.60;;;;;;;;;;4993831;28;20040;-75
2022/05/28 01:06:24;;;;;;;4.82;1.73;;;;;;;;;;4993477;28;20078;-75
2022/05/28 01:08:53;;;;;;;5.25;1.90;;;;;;;;;;4995042;28;20498;-75
2022/05/28 01:11:40;;;;;;;4.47;1.85;;;;;;;;;;4994703;28;20113;-74
2022/05/28 01:14:32;;;;;;;3.47;1.73;;;;;;;;;;4973098;28;20047;-75
2022/05/28 01:17:00;;;;;;;8.90;1.63;;;;;;;;;;4968323;28;20039;-75
2022/05/28 01:19:32;;;;;;;4.28;1.80;;;;;;;;;;4972397;28;20049;-75
2022/05/28 01:22:18;;;;;;;5.43;1.70;;;;;;;;;;4971633;28;20058;-75
2022/05/28 01:24:56;;;;;;;6.25;1.88;;;;;;;;;;4973455;28;20065;-75
2022/05/28 01:27:28;;;;;;;7.00;1.80;;;;;;;;;;4972541;28;20043;-75
2022/05/28 01:29:57;;;;;;;6.35;1.63;;;;;;;;;;4966758;28;20027;-75
2022/05/28 01:32:27;;;;;;;6.05;1.75;;;;;;;;;;4965070;28;20049;-75
2022/05/28 01:34:53;;;;;;;5.65;1.67;;;;;;;;;;4961336;28;20030;-75
2022/05/28 01:37:21;;;;;;;5.70;1.60;;;;;;;;;;4971267;28;20037;-75
2022/05/28 01:39:48;;;;;;;6.13;1.75;;;;;;;;;;4966652;28;20027;-75
2022/05/28 01:42:15;;;;;;;4.80;1.67;;;;;;;;;;4972667;28;20500;-75
2022/05/28 01:44:42;;;;;;;3.47;1.67;;;;;;;;;;4973237;28;20194;-75
2022/05/28 01:47:10;;;;;;;6.45;2.28;;;;;;;;;;4967332;28;20050;-75
2022/05/28 01:49:36;;;;;;;8.63;1.90;;;;;;;;;;4970870;28;20034;-75
2022/05/28 01:52:03;;;;;;;4.78;1.52;;;;;;;;;;4988141;28;20084;-75
2022/05/28 01:54:33;;;;;;;6.18;2.10;;;;;;;;;;4993230;28;20507;-74
2022/05/28 01:56:59;;;;;;;5.70;1.80;;;;;;;;;;4993030;28;20030;-75
2022/05/28 01:59:31;;;;;;;6.18;1.65;;;;;;;;;;4992606;28;20515;-75
2022/05/28 02:01:58;;;;;;;7.53;2.55;;;;;;;;;;4994231;28;20034;-75
2022/05/28 02:04:24;;;;;;;6.32;1.70;;;;;;;;;;4992554;28;20531;-75
2022/05/28 02:06:50;;;;;;;5.43;1.75;;;;;;;;;;4992345;28;20030;-75
2022/05/28 02:09:22;;;;;;;3.75;1.60;;;;;;;;;;4992730;28;20435;-75
2022/05/28 02:12:03;;;;;;;4.63;1.83;;;;;;;;;;4992342;28;20480;-75
2022/05/28 02:14:29;;;;;;;5.70;2.10;;;;;;;;;;4993180;28;20061;-75
2022/05/28 02:16:56;;;;;;;7.38;2.55;;;;;;;;;;4992746;28;20038;-75
2022/05/28 02:19:27;;;;;;;6.57;1.85;;;;;;;;;;4992547;28;20061;-75
2022/05/28 02:21:57;;;;;;;6.15;1.90;;;;;;;;;;4990669;28;20073;-75
2022/05/28 02:24:26;;;;;;;5.18;1.85;;;;;;;;;;4992721;28;20480;-75
2022/05/28 02:26:58;;;;;;;5.47;1.70;;;;;;;;;;4993519;28;20491;-75
2022/05/28 02:29:25;;;;;;;5.43;2.20;;;;;;;;;;4992667;28;20038;-75
2022/05/28 02:31:51;;;;;;;6.20;2.08;;;;;;;;;;4992619;28;20492;-75
2022/05/28 02:34:19;;;;;;;5.28;1.95;;;;;;;;;;4991364;28;20034;-75
2022/05/28 02:36:45;;;;;;;5.85;2.10;;;;;;;;;;4989984;28;20057;-75
2022/05/28 02:39:11;;;;;;;4.63;2.20;;;;;;;;;;4992675;28;20259;-75
2022/05/28 02:41:38;;;;;;;5.25;1.95;;;;;;;;;;4993844;28;20061;-75
2022/05/28 02:44:04;;;;;;;4.55;2.03;;;;;;;;;;4992616;28;20041;-74
2022/05/28 02:46:31;;;;;;;3.90;1.70;;;;;;;;;;4992366;28;20030;-74
2022/05/28 02:48:58;;;;;;;5.35;2.10;;;;;;;;;;4991683;28;20431;-74
2022/05/28 02:51:24;;;;;;;7.75;1.90;;;;;;;;;;4996529;28;20030;-74
2022/05/28 02:53:52;;;;;;;4.70;1.98;;;;;;;;;;4996381;28;20033;-75
2022/05/28 02:56:19;;;;;;;6.70;2.03;;;;;;;;;;4996058;28;20161;-74
2022/05/28 02:58:45;;;;;;;5.18;1.83;;;;;;;;;;4996896;28;20371;-74
2022/05/28 03:01:24;;;;;;;7.72;1.98;;;;;;;;;;4993920;28;20507;-74
2022/05/28 03:03:50;;;;;;;6.28;2.13;;;;;;;;;;4994305;28;20026;-74
2022/05/28 03:06:16;;;;;;;6.20;2.20;;;;;;;;;;4997399;28;20042;-74
2022/05/28 03:08:43;;;;;;;5.50;1.92;;;;;;;;;;4996103;28;20109;-75
2022/05/28 03:11:09;;;;;;;5.80;2.28;;;;;;;;;;4995825;28;20034;-75
2022/05/28 03:13:36;;;;;;;5.53;1.88;;;;;;;;;;4995756;28;20030;-75
2022/05/28 03:16:02;;;;;;;8.68;2.08;;;;;;;;;;4994859;28;20027;-74
2022/05/28 03:18:28;;;;;;;5.05;2.00;;;;;;;;;;4995732;28;20125;-75
2022/05/28 03:20:54;;;;;;;4.45;2.00;;;;;;;;;;4997228;28;20031;-75
2022/05/28 03:23:20;;;;;;;5.38;2.03;;;;;;;;;;4994038;28;20034;-75
2022/05/28 03:25:46;;;;;;;5.43;2.25;;;;;;;;;;4995937;28;20030;-75
2022/05/28 03:28:12;;;;;;;7.60;2.35;;;;;;;;;;4994969;28;20034;-75
2022/05/28 03:30:39;;;;;;;4.70;2.05;;;;;;;;;;4995301;28;20039;-75
2022/05/28 03:33:05;;;;;;;6.40;2.35;;;;;;;;;;4996026;28;20514;-74
2022/05/28 03:35:31;;;;;;;6.00;2.10;;;;;;;;;;4995500;28;20048;-74
2022/05/28 03:37:57;;;;;;;4.82;2.08;;;;;;;;;;4995101;28;20022;-75
2022/05/28 03:40:23;;;;;;;6.25;2.22;;;;;;;;;;4995772;28;20042;-75
2022/05/28 03:42:49;;;;;;;6.47;2.10;;;;;;;;;;4994707;28;20030;-74
2022/05/28 03:45:16;;;;;;;8.57;2.10;;;;;;;;;;4996849;28;20507;-75
2022/05/28 03:47:42;;;;;;;12.75;2.42;;;;;;;;;;4996579;28;20026;-74
2022/05/28 03:50:09;;;;;;;5.95;2.40;;;;;;;;;;4995072;28;20436;-75
2022/05/28 03:52:35;;;;;;;7.22;2.42;;;;;;;;;;4995086;28;20033;-74
2022/05/28 03:55:01;;;;;;;5.68;2.10;;;;;;;;;;4994569;28;20053;-74
2022/05/28 03:57:30;;;;;;;4.97;2.10;;;;;;;;;;4995080;28;20026;-74
2022/05/28 03:59:57;;;;;;;6.28;2.20;;;;;;;;;;4995786;28;20026;-74
2022/05/28 04:02:23;;;;;;;5.78;2.10;;;;;;;;;;4994892;28;20459;-75
2022/05/28 04:04:50;;;;;;;5.43;2.17;;;;;;;;;;4994888;28;20569;-75
2022/05/28 04:07:17;;;;;;;7.25;2.05;;;;;;;;;;4994255;28;20038;-74
2022/05/28 04:09:43;;;;;;;4.93;2.15;;;;;;;;;;4992046;28;20026;-76
2022/05/28 04:12:09;;;;;;;4.68;1.90;;;;;;;;;;4995045;28;20036;-74
2022/05/28 04:14:36;;;;;;;6.38;2.17;;;;;;;;;;4995074;28;20041;-74
2022/05/28 04:17:02;;;;;;;6.95;2.10;;;;;;;;;;4994770;28;20030;-75
2022/05/28 04:19:28;;;;;;;8.82;2.00;;;;;;;;;;4994682;28;20026;-75
2022/05/28 04:21:54;;;;;;;5.28;2.20;;;;;;;;;;4993291;28;20423;-75
2022/05/28 04:24:20;;;;;;;6.50;2.25;;;;;;;;;;4996005;28;20037;-75
2022/05/28 04:26:46;;;;;;;5.80;1.98;;;;;;;;;;4995783;28;20022;-75
2022/05/28 04:29:13;;;;;;;6.72;1.95;;;;;;;;;;4994700;28;20034;-75
2022/05/28 04:31:39;;;;;;;4.75;1.98;;;;;;;;;;4994745;28;20023;-75
2022/05/28 04:34:05;;;;;;;7.22;2.17;;;;;;;;;;4993394;28;20388;-74
2022/05/28 04:36:31;;;;;;;6.68;2.40;;;;;;;;;;4993799;28;20031;-75
2022/05/28 04:38:57;;;;;;;4.38;2.05;;;;;;;;;;4995752;28;20487;-74
2022/05/28 04:41:23;;;;;;;5.15;2.50;;;;;;;;;;4993880;28;20486;-74
2022/05/28 04:43:50;;;;;;;5.43;1.95;;;;;;;;;;4994164;28;20034;-74
2022/05/28 04:46:16;;;;;;;6.65;2.00;;;;;;;;;;4994226;28;20026;-74
2022/05/28 04:48:42;;;;;;;5.95;2.00;;;;;;;;;;4993254;28;20038;-75
2022/05/28 04:51:08;;;;;;;5.18;2.25;;;;;;;;;;4992635;28;20076;-75
2022/05/28 04:53:34;;;;;;;4.15;1.95;;;;;;;;;;4993641;28;20506;-75
2022/05/28 04:56:00;;;;;;;5.47;2.20;;;;;;;;;;4993607;28;20042;-74
2022/05/28 04:58:29;;;;;;;4.70;2.08;;;;;;;;;;4993603;28;20419;-75
2022/05/28 05:00:55;;;;;;;3.90;1.80;;;;;;;;;;4992900;28;20025;-75
2022/05/28 05:03:22;;;;;;;3.92;1.80;;;;;;;;;;4995464;28;20030;-75
2022/05/28 05:05:48;;;;;;;6.60;2.35;;;;;;;;;;4994866;28;20045;-74
2022/05/28 05:08:14;;;;;;;6.05;2.00;;;;;;;;;;4993740;28;20038;-74
2022/05/28 05:10:41;;;;;;;6.30;1.77;;;;;;;;;;4993889;28;20018;-75
2022/05/28 05:13:07;;;;;;;6.95;2.17;;;;;;;;;;4992619;28;20107;-75
2022/05/28 05:15:33;;;;;;;7.55;2.78;;;;;;;;;;4995109;28;20181;-74
2022/05/28 05:17:59;;;;;;;8.18;1.92;;;;;;;;;;4995099;28;20066;-75
2022/05/28 05:20:25;;;;;;;6.88;1.90;;;;;;;;;;4993242;28;20026;-74
2022/05/28 05:22:55;;;;;;;3.85;1.75;;;;;;;;;;4993423;28;20035;-75
2022/05/28 05:25:22;;;;;;;6.25;2.05;;;;;;;;;;4993366;28;20085;-74
2022/05/28 05:27:48;;;;;;;6.72;2.25;;;;;;;;;;4993113;28;20054;-73
2022/05/28 05:30:14;;;;;;;8.93;1.90;;;;;;;;;;4993229;28;20392;-75
2022/05/28 05:32:40;;;;;;;6.30;2.03;;;;;;;;;;4993417;28;20026;-75
2022/05/28 05:35:07;;;;;;;6.30;2.15;;;;;;;;;;4992934;28;20030;-74
2022/05/28 05:37:33;;;;;;;5.10;2.13;;;;;;;;;;4993379;28;20026;-74
2022/05/28 05:39:59;;;;;;;6.05;1.90;;;;;;;;;;5080761;22;20056;-75
2022/05/28 05:42:25;;;;;;;7.20;2.00;;;;;;;;;;4996903;28;20034;-74
2022/05/28 05:44:53;;;;;;;6.05;1.90;;;;;;;;;;4998105;28;20042;-74
2022/05/28 05:47:19;;;;;;;6.55;2.00;;;;;;;;;;4992859;28;20045;-74
2022/05/28 05:49:45;;;;;;;7.97;1.80;;;;;;;;;;4991585;28;20026;-75
2022/05/28 05:52:11;;;;;;;4.72;2.15;;;;;;;;;;4992532;28;20111;-75
2022/05/28 05:54:37;;;;;;;5.55;2.03;;;;;;;;;;4993308;28;20026;-74
2022/05/28 05:57:04;;;;;;;5.53;1.95;;;;;;;;;;4994414;28;20157;-74
2022/05/28 05:59:30;;;;;;;5.15;2.10;;;;;;;;;;4993130;28;20558;-74
2022/05/28 06:01:56;;;;;;;4.55;1.98;;;;;;;;;;4993044;28;20095;-74
2022/05/28 06:04:22;;;;;;;5.40;1.90;;;;;;;;;;4993197;28;20488;-74
2022/05/28 06:06:48;;;;;;;4.05;1.60;;;;;;;;;;4992431;28;20030;-74
2022/05/28 06:09:15;;;;;;;7.72;2.03;;;;;;;;;;4993061;28;20037;-74
2022/05/28 06:11:41;;;;;;;5.70;2.03;;;;;;;;;;4993414;28;20022;-73
2022/05/28 06:14:07;;;;;;;5.43;1.88;;;;;;;;;;4992776;28;20030;-74
2022/05/28 06:16:34;;;;;;;6.40;1.95;;;;;;;;;;4994866;28;20036;-73
2022/05/28 06:19:01;;;;;;;6.38;2.08;;;;;;;;;;4984852;28;20034;-74
2022/05/28 06:21:27;;;;;;;7.30;1.90;;;;;;;;;;4994339;28;20417;-73
2022/05/28 06:23:53;;;;;;;4.68;1.50;;;;;;;;;;5001599;28;20032;-76
2022/05/28 06:26:20;;;;;;;3.28;1.80;;;;;;;;;;5003190;28;20444;-75
2022/05/28 06:28:46;;;;;;;6.07;1.98;;;;;;;;;;4996691;28;20038;-76
2022/05/28 06:31:13;;;;;;;4.82;1.80;;;;;;;;;;4999610;28;20030;-75
2022/05/28 06:33:40;;;;;;;6.25;2.20;;;;;;;;;;4996692;28;20046;-75
2022/05/28 06:36:07;;;;;;;4.70;1.52;;;;;;;;;;4998054;28;20096;-75
2022/05/28 06:38:33;;;;;;;4.95;1.52;;;;;;;;;;4996179;28;20507;-75
2022/05/28 06:41:00;;;;;;;4.05;1.60;;;;;;;;;;4999651;28;20042;-75
2022/05/28 06:43:26;;;;;;;5.25;1.80;;;;;;;;;;4996315;28;20537;-75
2022/05/28 06:45:53;;;;;;;4.60;1.73;;;;;;;;;;5003651;28;20029;-74
2022/05/28 06:48:19;;;;;;;4.00;1.60;;;;;;;;;;4995818;28;20053;-75
2022/05/28 06:51:04;;;;;;;4.07;1.45;;;;;;;;;;4997674;28;20113;-75
2022/05/28 06:53:38;;;;;;;6.82;1.65;;;;;;;;;;5002229;28;20468;-74
2022/05/28 06:56:05;;;;;;;3.40;1.50;;;;;;;;;;5000830;28;20085;-76
2022/05/28 06:58:31;;;;;;;5.25;1.52;;;;;;;;;;4997082;28;20034;-74
2022/05/28 07:00:57;;;;;;;4.70;1.60;;;;;;;;;;4995484;28;20027;-75
2022/05/28 07:03:25;;;;;;;4.97;1.50;;;;;;;;;;5005135;28;20061;-74
2022/05/28 07:05:52;;;;;;;4.30;1.45;;;;;;;;;;4999312;28;20153;-74
2022/05/28 07:08:18;;;;;;;6.22;1.90;;;;;;;;;;4996000;28;20085;-74
2022/05/28 07:10:48;;;;;;;3.78;1.60;;;;;;;;;;4996504;28;20443;-74
2022/05/28 07:13:14;;;;;;;7.22;1.60;;;;;;;;;;4994063;28;20045;-74
2022/05/28 07:15:40;;;;;;;4.30;1.55;;;;;;;;;;4997396;28;20495;-74
2022/05/28 07:18:07;;;;;;;7.40;1.92;;;;;;;;;;4995809;28;20058;-74
2022/05/28 07:20:33;;;;;;;5.72;1.70;;;;;;;;;;4995708;28;20030;-74
2022/05/28 07:22:59;;;;;;;9.20;1.98;;;;;;;;;;4995828;28;20057;-74
2022/05/28 07:25:26;;;;;;;5.78;1.60;;;;;;;;;;4996626;28;20068;-74
2022/05/28 07:27:52;;;;;;;3.72;1.58;;;;;;;;;;4995355;28;20045;-74
2022/05/28 07:30:18;;;;;;;7.60;1.88;;;;;;;;;;4995369;28;20026;-74
2022/05/28 07:32:44;;;;;;;6.78;1.70;;;;;;;;;;4997153;28;20034;-75
2022/05/28 07:35:11;;;;;;;7.40;1.80;;;;;;;;;;4994965;28;20403;-74
2022/05/28 07:37:37;;;;;;;6.22;1.45;;;;;;;;;;4996856;28;20026;-74
2022/05/28 07:40:04;;;;;;;6.65;1.60;;;;;;;;;;4995193;28;20069;-75
2022/05/28 07:42:30;;;;;;;9.98;1.70;;;;;;;;;;4997025;28;20038;-72
2022/05/28 07:44:56;;;;;;;9.43;2.00;;;;;;;;;;4993145;28;20026;-72
2022/05/28 07:47:22;;;;;;;6.20;1.33;;;;;;;;;;4995371;28;20042;-72
2022/05/28 07:49:48;;;;;;;4.72;1.60;;;;;;;;;;4995401;28;20027;-72
2022/05/28 07:52:17;;;;;;;5.78;1.50;;;;;;;;;;4991292;28;20034;-72
2022/05/28 07:54:43;;;;;;;5.43;1.40;;;;;;;;;;4987383;28;20452;-72
2022/05/28 07:57:09;;;;;;;3.83;1.38;;;;;;;;;;4987580;28;20076;-74
2022/05/28 07:59:35;;;;;;;5.50;1.60;;;;;;;;;;4987146;28;20507;-73
2022/05/28 08:02:01;;;;;;;3.92;1.50;;;;;;;;;;4987863;28;20030;-73
2022/05/28 08:04:28;;;;;;;3.85;1.50;;;;;;;;;;4988534;28;20094;-74
2022/05/28 08:06:54;;;;;;;9.65;1.60;;;;;;;;;;4990177;28;20030;-74
2022/05/28 08:09:20;;;;;;;4.13;1.45;;;;;;;;;;4988398;28;20042;-75
2022/05/28 08:11:46;;;;;;;4.13;1.38;;;;;;;;;;4987592;28;20026;-74
2022/05/28 08:14:12;;;;;;;5.05;1.40;;;;;;;;;;4987314;28;20034;-75
2022/05/28 08:16:38;;;;;;;3.03;1.40;;;;;;;;;;4987174;28;20107;-78
2022/05/28 08:19:04;;;;;;;3.83;1.42;;;;;;;;;;4990969;28;20034;-74
2022/05/28 08:24:15;;;;;;;8.65;1.40;;;;;;;;;;4988024;28;20205;-77
2022/05/28 08:26:42;;;;;;;5.80;1.25;;;;;;;;;;4986928;28;20042;-77
2022/05/28 08:29:08;;;;;;;5.43;1.38;;;;;;;;;;4986589;28;20499;-78
2022/05/28 08:31:34;;;;;;;7.70;1.70;;;;;;;;;;4986564;28;20030;-77
2022/05/28 08:34:00;;;;;;;6.13;1.60;;;;;;;;;;4999856;28;20041;-76
2022/05/28 08:36:27;;;;;;;6.55;1.83;;;;;;;;;;4987143;28;20483;-77
2022/05/28 08:38:53;;;;;;;6.85;1.48;;;;;;;;;;4983865;28;20503;-77
2022/05/28 08:41:21;;;;;;;6.38;1.67;;;;;;;;;;4987068;28;20042;-77
2022/05/28 08:44:00;;;;;;;7.22;1.52;;;;;;;;;;4989271;28;20088;-77
2022/05/28 08:46:27;;;;;;;5.80;1.70;;;;;;;;;;4988395;28;20050;-77
2022/05/28 08:48:54;;;;;;;10.48;2.05;;;;;;;;;;4988228;28;20052;-77
2022/05/28 08:51:25;;;;;;;11.23;2.28;;;;;;;;;;4986507;28;20018;-78
2022/05/28 08:54:01;;;;;;;6.70;2.00;;;;;;;;;;4986618;28;20038;-77
2022/05/28 08:56:27;;;;;;;19.27;2.00;;;;;;;;;;4987676;28;20034;-77
2022/05/28 08:59:04;;;;;;;6.82;2.00;;;;;;;;;;4991254;28;20023;-76
2022/05/28 09:01:32;;;;;;;6.90;2.17;;;;;;;;;;4979564;28;20045;-78
2022/05/28 09:04:01;;;;;;;8.65;2.22;;;;;;;;;;4992308;28;20094;-76
2022/05/28 09:06:33;;;;;;;7.22;1.98;;;;;;;;;;4998884;28;20038;-77
2022/05/28 09:08:59;;;;;;;5.20;1.65;;;;;;;;;;4993271;28;20030;-79
2022/05/28 09:11:33;;;;;;;7.93;1.70;;;;;;;;;;4989312;28;20440;-77
2022/05/28 09:14:04;;;;;;;7.57;2.47;;;;;;;;;;4994150;28;20065;-76
2022/05/28 09:16:31;;;;;;;4.88;1.85;;;;;;;;;;4992128;28;20030;-76
2022/05/28 09:19:02;;;;;;;9.43;1.88;;;;;;;;;;4991838;28;20371;-75
2022/05/28 09:21:28;;;;;;;8.50;1.80;;;;;;;;;;4992355;28;20038;-77
2022/05/28 09:23:57;;;;;;;4.95;1.90;;;;;;;;;;4988880;28;20019;-76
2022/05/28 09:26:37;;;;;;;7.38;2.00;;;;;;;;;;4992737;28;20030;-76
2022/05/28 09:29:15;;;;;;;6.88;1.83;;;;;;;;;;4988953;28;20037;-76
2022/05/28 09:31:51;;;;;;;7.57;1.90;;;;;;;;;;4984986;28;20030;-76
2022/05/28 09:34:23;;;;;;;7.20;2.00;;;;;;;;;;4992892;28;20102;-75
2022/05/28 09:36:56;;;;;;;7.57;1.80;;;;;;;;;;4990944;28;20034;-76
2022/05/28 09:39:41;;;;;;;13.68;2.13;;;;;;;;;;4994263;28;20057;-74
2022/05/28 09:42:19;;;;;;;7.63;1.83;;;;;;;;;;4992513;28;20462;-74
2022/05/28 09:44:53;;;;;;;16.00;2.55;;;;;;;;;;4993530;28;20022;-74
2022/05/28 09:47:20;;;;;;;9.45;2.22;;;;;;;;;;4992820;28;20117;-75
2022/05/28 09:49:51;;;;;;;7.90;1.80;;;;;;;;;;4994409;28;20022;-75
2022/05/28 09:52:23;;;;;;;8.30;2.22;;;;;;;;;;4992356;28;20034;-71
2022/05/28 09:54:49;;;;;;;9.40;2.45;;;;;;;;;;4989403;28;20760;-78
2022/05/28 09:57:23;;;;;;;8.75;2.15;;;;;;;;;;4997301;28;20022;-78
2022/05/28 09:59:54;;;;;;;18.05;2.50;;;;;;;;;;4998001;28;20030;-78
2022/05/28 10:02:20;;;;;;;11.10;2.30;;;;;;;;;;4992522;28;20023;-78
2022/05/28 10:05:06;;;;;;;16.38;2.50;;;;;;;;;;4992895;28;20065;-75
2022/05/28 10:07:37;;;;;;;18.20;2.45;;;;;;;;;;4992850;28;20147;-75
2022/05/28 10:10:25;;;;;;;10.67;2.47;;;;;;;;;;4988175;28;20065;-75
2022/05/28 10:12:52;;;;;;;12.25;1.92;;;;;;;;;;4987948;28;20273;-76
2022/05/28 10:15:18;;;;;;;17.10;2.75;;;;;;;;;;4993852;28;20085;-75
2022/05/28 10:17:52;;;;;;;16.45;2.33;;;;;;;;;;4992511;28;20113;-75
2022/05/28 10:20:19;;;;;;;8.07;2.00;;;;;;;;;;4992497;28;20026;-75
2022/05/28 10:22:47;;;;;;;7.72;2.08;;;;;;;;;;4999937;28;20507;-75
2022/05/28 10:25:31;;;;;;;12.95;2.58;;;;;;;;;;4991574;28;20443;-79
2022/05/28 10:27:57;;;;;;;10.73;2.72;;;;;;;;;;4990701;28;20029;-75
2022/05/28 10:30:40;;;;;;;5.32;1.90;;;;;;;;;;4993900;28;20038;-76
2022/05/28 10:33:09;;;;;;;19.27;3.10;;;;;;;;;;4994939;28;20096;-74
2022/05/28 10:35:35;;;;;;;17.15;2.60;;;;;;;;;;4992684;28;20029;-76
2022/05/28 10:38:09;;;;;;;8.02;1.90;;;;;;;;;;4992752;28;20026;-74
2022/05/28 10:40:39;;;;;;;6.75;2.05;;;;;;;;;;4978047;28;20049;-71
2022/05/28 10:43:22;;;;;;;11.68;2.13;;;;;;;;;;4988468;28;20113;-72
2022/05/28 10:45:51;;;;;;;7.93;2.23;;;;;;;;;;4989583;28;20026;-72
2022/05/28 10:48:23;;;;;;;6.13;1.88;;;;;;;;;;4992289;28;20300;-72
2022/05/28 10:50:55;;;;;;;8.05;2.13;;;;;;;;;;4997555;28;20022;-72
2022/05/28 10:53:21;;;;;;;10.30;2.00;;;;;;;;;;5002766;28;20031;-72
2022/05/28 10:56:05;;;;;;;11.55;2.33;;;;;;;;;;4992630;28;20026;-72
2022/05/28 10:58:31;;;;;;;11.35;2.05;;;;;;;;;;4992864;28;20022;-72
2022/05/28 11:01:03;;;;;;;12.00;2.20;;;;;;;;;;4991752;28;20483;-72
2022/05/28 11:03:48;;;;;;;7.68;2.35;;;;;;;;;;4992374;28;20084;-72
2022/05/28 11:06:33;;;;;;;8.02;2.03;;;;;;;;;;4992452;28;20026;-72
2022/05/28 11:09:03;;;;;;;9.65;2.30;;;;;;;;;;4993555;28;20038;-71
2022/05/28 11:11:33;;;;;;;7.30;2.90;;;;;;;;;;4995124;28;20065;-72
2022/05/28 11:14:00;;;;;;;16.33;2.47;;;;;;;;;;4996024;28;20428;-72
2022/05/28 11:16:26;;;;;;;6.95;1.90;;;;;;;;;;4996530;28;20043;-71
2022/05/28 11:18:55;;;;;;;8.40;2.30;;;;;;;;;;4996325;28;20415;-72
2022/05/28 11:21:31;;;;;;;7.60;2.40;;;;;;;;;;4995915;28;20462;-72
2022/05/28 11:24:06;;;;;;;7.53;2.40;;;;;;;;;;4995617;28;20022;-72
2022/05/28 11:26:38;;;;;;;9.93;2.03;;;;;;;;;;4995663;28;20032;-72
2022/05/28 11:29:23;;;;;;;8.57;2.03;;;;;;;;;;5004716;28;20480;-72
2022/05/28 11:31:53;;;;;;;5.45;2.10;;;;;;;;;;4990171;28;20037;-72
2022/05/28 11:34:19;;;;;;;8.50;2.13;;;;;;;;;;4995643;28;20019;-72
2022/05/28 11:36:48;;;;;;;6.00;2.10;;;;;;;;;;4994487;28;20054;-72
2022/05/28 11:39:46;;;;;;;8.80;2.65;;;;;;;;;;4995727;28;20475;-72
2022/05/28 11:42:20;;;;;;;6.70;2.00;;;;;;;;;;4940496;28;20130;-72
2022/05/28 11:44:49;;;;;;;8.45;2.20;;;;;;;;;;4938316;28;20583;-72
2022/05/28 11:47:37;;;;;;;7.72;2.35;;;;;;;;;;4938734;29;20043;-72
2022/05/28 11:52:56;;;;;;;7.15;2.03;;;;;;;;;;4921677;29;20067;-72
2022/05/28 11:55:23;;;;;;;5.78;2.40;;;;;;;;;;4935475;29;20050;-72
2022/05/28 11:57:52;;;;;;;8.45;2.20;;;;;;;;;;4938651;29;20062;-72
2022/05/28 12:00:21;;;;;;;5.68;1.95;;;;;;;;;;4938084;29;20106;-72
2022/05/28 12:02:59;;;;;;;5.47;2.08;;;;;;;;;;4937940;29;20031;-72
2022/05/28 12:05:26;;;;;;;10.85;2.38;;;;;;;;;;4937653;29;20521;-72
2022/05/28 12:08:02;;;;;;;8.10;1.90;;;;;;;;;;4935866;29;20409;-72
2022/05/28 12:10:31;;;;;;;7.53;1.90;;;;;;;;;;4934984;29;20067;-72
2022/05/28 12:12:59;;;;;;;6.03;1.90;;;;;;;;;;4954194;28;20024;-72
2022/05/28 12:15:27;;;;;;;6.03;2.05;;;;;;;;;;4937619;29;20036;-72
2022/05/28 12:17:59;;;;;;;7.18;1.60;;;;;;;;;;4967916;28;20121;-72
2022/05/28 12:20:36;;;;;;;6.03;1.70;;;;;;;;;;4994428;28;20042;-72
2022/05/28 12:23:04;;;;;;;10.15;2.30;;;;;;;;;;4995143;28;20442;-72
2022/05/28 12:25:31;;;;;;;4.30;2.10;;;;;;;;;;4995009;28;20112;-72
2022/05/28 12:28:01;;;;;;;7.13;1.98;;;;;;;;;;4994280;28;20510;-72
2022/05/28 12:30:33;;;;;;;9.93;2.40;;;;;;;;;;4994612;28;20510;-72
2022/05/28 12:32:59;;;;;;;7.68;2.20;;;;;;;;;;4994839;28;20038;-72
2022/05/28 12:35:28;;;;;;;6.95;1.85;;;;;;;;;;4994762;28;20026;-72
2022/05/28 12:38:10;;;;;;;10.05;2.10;;;;;;;;;;4994687;28;20372;-71
2022/05/28 12:40:39;;;;;;;6.60;2.05;;;;;;;;;;4978916;28;20042;-72
2022/05/28 12:43:19;;;;;;;6.78;1.85;;;;;;;;;;4990401;28;20022;-72
2022/05/28 12:45:47;;;;;;;6.97;1.90;;;;;;;;;;4996036;28;20037;-72
2022/05/28 12:48:13;;;;;;;4.93;1.80;;;;;;;;;;4994343;28;20077;-72
2022/05/28 12:50:45;;;;;;;6.43;1.75;;;;;;;;;;4995285;28;20026;-72
2022/05/28 12:53:19;;;;;;;7.78;2.00;;;;;;;;;;4992883;28;20092;-72
2022/05/28 12:55:45;;;;;;;6.90;1.75;;;;;;;;;;4994544;28;20110;-72
2022/05/28 12:58:23;;;;;;;5.10;1.70;;;;;;;;;;4993654;28;20034;-72
2022/05/28 13:00:55;;;;;;;6.47;1.67;;;;;;;;;;4996325;28;20041;-72
2022/05/28 13:03:24;;;;;;;5.47;1.83;;;;;;;;;;4994998;28;20026;-72
2022/05/28 13:05:52;;;;;;;4.35;1.98;;;;;;;;;;4995482;28;20037;-72
2022/05/28 13:08:28;;;;;;;5.82;1.95;;;;;;;;;;4993793;28;20034;-72
2022/05/28 13:10:56;;;;;;;9.18;2.08;;;;;;;;;;4995977;28;20021;-72
2022/05/28 13:13:28;;;;;;;14.85;2.30;;;;;;;;;;4992771;28;20034;-72
2022/05/28 13:16:05;;;;;;;8.23;1.92;;;;;;;;;;4993032;28;20022;-70
2022/05/28 13:18:40;;;;;;;6.13;1.92;;;;;;;;;;4993490;28;20384;-70
2022/05/28 13:21:16;;;;;;;4.50;1.70;;;;;;;;;;4993710;28;20481;-70
2022/05/28 13:23:45;;;;;;;6.72;1.70;;;;;;;;;;4994154;28;20546;-70
2022/05/28 13:26:17;;;;;;;8.77;1.88;;;;;;;;;;4993694;28;20412;-70
2022/05/28 13:28:49;;;;;;;7.32;1.73;;;;;;;;;;5004662;28;20087;-70
2022/05/28 13:31:16;;;;;;;8.18;1.55;;;;;;;;;;4991862;28;20022;-70
2022/05/28 13:33:43;;;;;;;7.25;1.80;;;;;;;;;;4992283;28;20428;-70
2022/05/28 13:36:17;;;;;;;5.97;1.70;;;;;;;;;;4992239;28;20500;-70
2022/05/28 13:38:47;;;;;;;5.72;1.80;;;;;;;;;;4993325;28;20034;-70
2022/05/28 13:41:19;;;;;;;4.82;1.63;;;;;;;;;;4993511;28;20511;-70
2022/05/28 13:43:47;;;;;;;5.32;1.90;;;;;;;;;;4995015;28;20578;-70
2022/05/28 13:46:14;;;;;;;5.15;1.75;;;;;;;;;;4992684;28;20019;-70
2022/05/28 13:48:46;;;;;;;6.43;1.65;;;;;;;;;;4993585;28;20038;-70
2022/05/28 13:51:13;;;;;;;6.20;1.80;;;;;;;;;;4993092;28;20096;-70
2022/05/28 13:53:41;;;;;;;7.55;1.73;;;;;;;;;;4995929;28;20097;-70
2022/05/28 13:56:08;;;;;;;6.45;1.63;;;;;;;;;;4993717;28;20101;-70
2022/05/28 13:58:37;;;;;;;4.00;1.70;;;;;;;;;;4993024;28;20073;-70
2022/05/28 14:01:06;;;;;;;6.70;2.05;;;;;;;;;;4991286;28;20085;-70
2022/05/28 14:03:39;;;;;;;6.05;1.60;;;;;;;;;;4994339;28;20054;-70
2022/05/28 14:06:26;;;;;;;6.18;1.60;;;;;;;;;;4993371;28;20033;-70
2022/05/28 14:08:53;;;;;;;4.45;1.50;;;;;;;;;;4992951;28;20050;-70
2022/05/28 14:11:19;;;;;;;7.25;1.83;;;;;;;;;;4992983;28;20034;-70
2022/05/28 14:13:57;;;;;;;5.95;2.83;;;;;;;;;;4993215;28;20109;-70
2022/05/28 14:16:28;;;;;;;5.55;1.80;;;;;;;;;;4992611;28;20483;-70
2022/05/28 14:18:57;;;;;;;8.40;1.80;;;;;;;;;;5004762;28;20034;-70
2022/05/28 14:21:27;;;;;;;7.13;1.90;;;;;;;;;;4994282;28;20034;-70
2022/05/28 14:23:54;;;;;;;4.05;1.70;;;;;;;;;;4994672;28;20034;-70
2022/05/28 14:26:20;;;;;;;7.75;2.28;;;;;;;;;;4995257;28;20026;-70
2022/05/28 14:28:47;;;;;;;6.30;1.73;;;;;;;;;;4992860;28;20038;-70
2022/05/28 14:31:15;;;;;;;5.88;1.80;;;;;;;;;;4991745;28;20042;-70
2022/05/28 14:33:43;;;;;;;6.20;1.60;;;;;;;;;;4993407;28;20034;-70
2022/05/28 14:36:26;;;;;;;8.02;1.90;;;;;;;;;;4991345;28;20415;-70
2022/05/28 14:38:53;;;;;;;5.90;1.80;;;;;;;;;;4992684;28;20042;-70
2022/05/28 14:41:19;;;;;;;6.10;1.70;;;;;;;;;;4992913;28;20045;-70
2022/05/28 14:43:49;;;;;;;6.72;1.88;;;;;;;;;;4992726;28;20034;-70
2022/05/28 14:46:24;;;;;;;5.55;2.00;;;;;;;;;;4995113;28;20022;-71
2022/05/28 14:48:59;;;;;;;5.22;2.13;;;;;;;;;;4996612;28;20050;-70
2022/05/28 14:51:26;;;;;;;4.53;1.70;;;;;;;;;;4997734;28;20105;-70
2022/05/28 14:53:53;;;;;;;7.45;1.98;;;;;;;;;;4996840;28;20510;-70
2022/05/28 14:56:19;;;;;;;5.45;2.10;;;;;;;;;;4996324;28;20113;-70
2022/05/28 14:58:47;;;;;;;5.40;1.75;;;;;;;;;;4996400;28;20480;-70
2022/05/28 15:01:14;;;;;;;2.83;1.48;;;;;;;;;;4995678;28;20065;-71